NCAR-RAP Real-Time Weather Data

Output produced by METARs form (19 June 2019  11:41 UTC)
found at http://weather.rap.ucar.edu/surface/
 
KWMC 191056Z AUTO 22004KT 10SM CLR 12/02 A3008 RMK AO2 SLP141 T01170022
KWMC 190956Z AUTO 16007KT 10SM CLR 09/02 A3008 RMK AO2 SLP146 T00890022
KWMC 190856Z AUTO 28006KT 10SM CLR 10/03 A3008 RMK AO2 SLP145 T01000028 51005
KWMC 190756Z AUTO 14005KT 10SM CLR 12/03 A3008 RMK AO2 SLP143 T01170028 403220117
KWMC 190656Z AUTO VRB03KT 10SM CLR 14/02 A3008 RMK AO2 SLP144 T01390022
KWMC 190556Z AUTO 23005KT 10SM CLR 14/01 A3006 RMK AO2 SLP138 T01440011 10322 20133 51007
KWMC 190456Z AUTO 31008KT 10SM CLR 18/00 A3006 RMK AO2 SLP134 T01780000
KWMC 190356Z AUTO 23003KT 10SM CLR 19/02 A3004 RMK AO2 SLP129 T01890017
KWMC 190256Z AUTO 34003KT 10SM CLR 28/01 A3004 RMK AO2 SLP120 T02780006 55006
KWMC 190156Z AUTO 32010KT 10SM CLR 31/M02 A3004 RMK AO2 SLP119 T03061022
KWMC 190056Z AUTO 31008KT 10SM CLR 31/M04 A3004 RMK AO2 SLP125 T03111039
KWMC 182356Z AUTO VRB03G15KT 10SM CLR 31/M02 A3006 RMK AO2 SLP133 T03061017 10317 20256 57013
KWMC 182256Z AUTO VRB05KT 10SM CLR 31/M01 A3007 RMK AO2 SLP132 T03111006
KWMC 182156Z AUTO 31010G16KT 10SM CLR 31/01 A3009 RMK AO2 SLP138 T03110006
KWMC 182056Z AUTO VRB05KT 10SM CLR 29/00 A3010 RMK AO2 SLP149 T02940000 57011
KWMC 181956Z AUTO 29010G17KT 10SM CLR 29/03 A3011 RMK AO2 SLP152 T02940028
KWMC 181856Z AUTO VRB06KT 10SM CLR 28/03 A3013 RMK AO2 SLP150 T02830028
KWMC 181756Z AUTO 30007KT 10SM CLR 26/04 A3014 RMK AO2 SLP155 T02610039 10267 20117 58003
KWMC 181656Z AUTO VRB03KT 10SM CLR 25/06 A3015 RMK AO2 SLP160 T02500056